sensor_id;sensor_type;location;lat;lon;timestamp;P1;durP1;ratioP1;P2;durP2;ratioP2
14520;SDS011;7347;50.844;4.490;2024-02-16T08:29:28;3.17;;;1.50;;
14520;SDS011;7347;50.844;4.490;2024-02-16T08:31:56;3.37;;;1.20;;
14520;SDS011;7347;50.844;4.490;2024-02-16T08:34:22;5.47;;;1.67;;
14520;SDS011;7347;50.844;4.490;2024-02-16T08:36:51;3.87;;;1.20;;
14520;SDS011;7347;50.844;4.490;2024-02-16T08:39:18;2.70;;;1.20;;
14520;SDS011;7347;50.844;4.490;2024-02-16T08:41:45;2.17;;;1.07;;
14520;SDS011;7347;50.844;4.490;2024-02-16T08:44:13;4.27;;;1.40;;
14520;SDS011;7347;50.844;4.490;2024-02-16T08:46:41;7.70;;;1.50;;
14520;SDS011;7347;50.844;4.490;2024-02-16T08:49:08;3.47;;;1.27;;
14520;SDS011;7347;50.844;4.490;2024-02-16T08:51:35;3.97;;;1.37;;
14520;SDS011;7347;50.844;4.490;2024-02-16T08:54:02;2.27;;;1.07;;
14520;SDS011;7347;50.844;4.490;2024-02-16T08:56:30;4.00;;;1.40;;
14520;SDS011;7347;50.844;4.490;2024-02-16T08:58:57;2.70;;;1.60;;
14520;SDS011;7347;50.844;4.490;2024-02-16T09:01:29;4.07;;;1.30;;
14520;SDS011;7347;50.844;4.490;2024-02-16T09:03:58;2.63;;;1.33;;
14520;SDS011;7347;50.844;4.490;2024-02-16T09:06:25;4.20;;;1.60;;
14520;SDS011;7347;50.844;4.490;2024-02-16T09:08:53;4.27;;;1.20;;
14520;SDS011;7347;50.844;4.490;2024-02-16T09:11:20;3.63;;;1.37;;
14520;SDS011;7347;50.844;4.490;2024-02-16T09:13:47;4.83;;;1.50;;
14520;SDS011;7347;50.844;4.490;2024-02-16T09:16:14;3.37;;;1.47;;
14520;SDS011;7347;50.844;4.490;2024-02-16T09:18:41;3.40;;;1.93;;
14520;SDS011;7347;50.844;4.490;2024-02-16T09:21:09;4.60;;;1.33;;
14520;SDS011;7347;50.844;4.490;2024-02-16T09:23:36;3.90;;;1.37;;
14520;SDS011;7347;50.844;4.490;2024-02-16T09:26:03;4.80;;;1.67;;
14520;SDS011;7347;50.844;4.490;2024-02-16T09:28:30;4.07;;;1.50;;
14520;SDS011;7347;50.844;4.490;2024-02-16T09:30:58;4.37;;;1.47;;
14520;SDS011;7347;50.844;4.490;2024-02-16T09:33:25;4.27;;;1.33;;
14520;SDS011;7347;50.844;4.490;2024-02-16T09:35:53;6.23;;;1.97;;
14520;SDS011;7347;50.844;4.490;2024-02-16T09:38:21;3.70;;;1.40;;
14520;SDS011;7347;50.844;4.490;2024-02-16T09:40:48;3.97;;;1.43;;
14520;SDS011;7347;50.844;4.490;2024-02-16T09:43:24;4.33;;;1.67;;
14520;SDS011;7347;50.844;4.490;2024-02-16T09:45:52;4.97;;;1.77;;
14520;SDS011;7347;50.844;4.490;2024-02-16T09:48:20;3.07;;;1.30;;
14520;SDS011;7347;50.844;4.490;2024-02-16T09:50:48;4.43;;;1.53;;
14520;SDS011;7347;50.844;4.490;2024-02-16T09:53:16;3.97;;;1.63;;
14520;SDS011;7347;50.844;4.490;2024-02-16T09:55:47;6.73;;;1.80;;
14520;SDS011;7347;50.844;4.490;2024-02-16T09:58:16;6.23;;;2.60;;
14520;SDS011;7347;50.844;4.490;2024-02-16T10:00:47;4.23;;;1.60;;
14520;SDS011;7347;50.844;4.490;2024-02-16T10:03:24;4.27;;;1.83;;
14520;SDS011;7347;50.844;4.490;2024-02-16T10:05:52;5.30;;;1.90;;
14520;SDS011;7347;50.844;4.490;2024-02-16T10:08:19;3.97;;;1.90;;
14520;SDS011;7347;50.844;4.490;2024-02-16T10:10:47;5.73;;;1.63;;
14520;SDS011;7347;50.844;4.490;2024-02-16T10:13:15;5.67;;;1.80;;
14520;SDS011;7347;50.844;4.490;2024-02-16T10:15:42;6.60;;;2.40;;
14520;SDS011;7347;50.844;4.490;2024-02-16T10:18:09;3.20;;;1.70;;
14520;SDS011;7347;50.844;4.490;2024-02-16T10:20:37;6.73;;;1.97;;
14520;SDS011;7347;50.844;4.490;2024-02-16T10:23:05;4.63;;;2.10;;
14520;SDS011;7347;50.844;4.490;2024-02-16T10:25:33;4.70;;;1.87;;
14520;SDS011;7347;50.844;4.490;2024-02-16T10:28:03;5.00;;;1.80;;
14520;SDS011;7347;50.844;4.490;2024-02-16T10:30:34;4.30;;;1.70;;
14520;SDS011;7347;50.844;4.490;2024-02-16T10:33:03;5.23;;;2.27;;
14520;SDS011;7347;50.844;4.490;2024-02-16T10:35:31;5.07;;;1.97;;
14520;SDS011;7347;50.844;4.490;2024-02-16T10:38:00;8.03;;;1.90;;
14520;SDS011;7347;50.844;4.490;2024-02-16T10:40:30;7.33;;;1.97;;
14520;SDS011;7347;50.844;4.490;2024-02-16T10:43:01;13.67;;;2.03;;
14520;SDS011;7347;50.844;4.490;2024-02-16T10:45:31;5.10;;;1.80;;
14520;SDS011;7347;50.844;4.490;2024-02-16T10:48:01;4.27;;;2.00;;
14520;SDS011;7347;50.844;4.490;2024-02-16T10:50:28;5.80;;;1.70;;
14520;SDS011;7347;50.844;4.490;2024-02-16T10:52:55;5.80;;;2.00;;
14520;SDS011;7347;50.844;4.490;2024-02-16T10:55:24;6.13;;;1.90;;
14520;SDS011;7347;50.844;4.490;2024-02-16T10:57:51;6.47;;;2.40;;
14520;SDS011;7347;50.844;4.490;2024-02-16T11:00:22;4.27;;;2.10;;
14520;SDS011;7347;50.844;4.490;2024-02-16T11:02:55;3.97;;;2.30;;
14520;SDS011;7347;50.844;4.490;2024-02-16T11:05:33;6.00;;;2.40;;
14520;SDS011;7347;50.844;4.490;2024-02-16T11:08:01;5.57;;;2.07;;
14520;SDS011;7347;50.844;4.490;2024-02-16T11:10:29;5.23;;;2.57;;
14520;SDS011;7347;50.844;4.490;2024-02-16T11:13:00;7.10;;;2.37;;
14520;SDS011;7347;50.844;4.490;2024-02-16T11:15:31;5.83;;;2.20;;
14520;SDS011;7347;50.844;4.490;2024-02-16T11:18:00;6.93;;;2.30;;
14520;SDS011;7347;50.844;4.490;2024-02-16T11:20:27;6.20;;;2.50;;
14520;SDS011;7347;50.844;4.490;2024-02-16T11:23:04;4.73;;;2.50;;
14520;SDS011;7347;50.844;4.490;2024-02-16T11:25:32;5.90;;;3.10;;
14520;SDS011;7347;50.844;4.490;2024-02-16T11:27:59;3.27;;;2.17;;
14520;SDS011;7347;50.844;4.490;2024-02-16T11:30:28;7.53;;;3.07;;
14520;SDS011;7347;50.844;4.490;2024-02-16T11:32:56;2.87;;;1.97;;
14520;SDS011;7347;50.844;4.490;2024-02-16T11:35:23;5.10;;;2.90;;
14520;SDS011;7347;50.844;4.490;2024-02-16T11:37:50;4.20;;;2.23;;
14520;SDS011;7347;50.844;4.490;2024-02-16T11:40:17;5.47;;;2.93;;
14520;SDS011;7347;50.844;4.490;2024-02-16T11:42:44;6.07;;;2.50;;
14520;SDS011;7347;50.844;4.490;2024-02-16T11:45:12;7.57;;;2.97;;
14520;SDS011;7347;50.844;4.490;2024-02-16T11:47:40;5.73;;;2.70;;
14520;SDS011;7347;50.844;4.490;2024-02-16T11:50:12;4.73;;;2.40;;
14520;SDS011;7347;50.844;4.490;2024-02-16T11:52:41;7.83;;;2.53;;
14520;SDS011;7347;50.844;4.490;2024-02-16T11:55:08;7.33;;;2.60;;
14520;SDS011;7347;50.844;4.490;2024-02-16T11:57:36;3.83;;;2.63;;
14520;SDS011;7347;50.844;4.490;2024-02-16T12:00:03;7.60;;;2.70;;
14520;SDS011;7347;50.844;4.490;2024-02-16T12:02:35;5.03;;;2.50;;
14520;SDS011;7347;50.844;4.490;2024-02-16T12:05:03;3.67;;;2.30;;
14520;SDS011;7347;50.844;4.490;2024-02-16T12:07:32;5.47;;;2.40;;
14520;SDS011;7347;50.844;4.490;2024-02-16T12:09:59;6.13;;;2.40;;
14520;SDS011;7347;50.844;4.490;2024-02-16T12:12:27;7.80;;;2.60;;
14520;SDS011;7347;50.844;4.490;2024-02-16T12:14:54;5.33;;;1.70;;
14520;SDS011;7347;50.844;4.490;2024-02-16T12:17:22;7.83;;;2.37;;
14520;SDS011;7347;50.844;4.490;2024-02-16T12:19:49;2.93;;;2.20;;
14520;SDS011;7347;50.844;4.490;2024-02-16T12:22:18;2.63;;;1.67;;
14520;SDS011;7347;50.844;4.490;2024-02-16T12:24:47;2.70;;;1.73;;
14520;SDS011;7347;50.844;4.490;2024-02-16T12:27:16;2.47;;;1.90;;
14520;SDS011;7347;50.844;4.490;2024-02-16T12:29:43;3.00;;;1.90;;
14520;SDS011;7347;50.844;4.490;2024-02-16T12:32:10;2.07;;;1.50;;
14520;SDS011;7347;50.844;4.490;2024-02-16T12:34:37;2.37;;;1.60;;
14520;SDS011;7347;50.844;4.490;2024-02-16T12:37:04;4.97;;;1.70;;
14520;SDS011;7347;50.844;4.490;2024-02-16T12:39:33;3.77;;;1.87;;
14520;SDS011;7347;50.844;4.490;2024-02-16T12:42:02;2.23;;;1.40;;
14520;SDS011;7347;50.844;4.490;2024-02-16T12:44:29;1.60;;;1.40;;
14520;SDS011;7347;50.844;4.490;2024-02-16T12:46:56;3.50;;;1.50;;
14520;SDS011;7347;50.844;4.490;2024-02-16T12:49:23;5.90;;;3.77;;
14520;SDS011;7347;50.844;4.490;2024-02-16T12:51:51;2.70;;;1.60;;
14520;SDS011;7347;50.844;4.490;2024-02-16T12:54:19;5.73;;;1.90;;
14520;SDS011;7347;50.844;4.490;2024-02-16T12:56:47;2.33;;;1.70;;
14520;SDS011;7347;50.844;4.490;2024-02-16T12:59:16;2.53;;;1.53;;
14520;SDS011;7347;50.844;4.490;2024-02-16T13:01:43;2.00;;;1.70;;
14520;SDS011;7347;50.844;4.490;2024-02-16T13:04:11;2.70;;;1.73;;
14520;SDS011;7347;50.844;4.490;2024-02-16T13:06:38;2.10;;;1.60;;
14520;SDS011;7347;50.844;4.490;2024-02-16T13:09:05;3.03;;;1.90;;
14520;SDS011;7347;50.844;4.490;2024-02-16T13:11:33;3.20;;;1.80;;
14520;SDS011;7347;50.844;4.490;2024-02-16T13:14:00;3.17;;;1.73;;
14520;SDS011;7347;50.844;4.490;2024-02-16T13:16:29;2.17;;;1.63;;
14520;SDS011;7347;50.844;4.490;2024-02-16T13:18:56;2.70;;;1.90;;
14520;SDS011;7347;50.844;4.490;2024-02-16T13:21:23;2.77;;;2.13;;
14520;SDS011;7347;50.844;4.490;2024-02-16T13:23:50;3.33;;;2.17;;
14520;SDS011;7347;50.844;4.490;2024-02-16T13:26:17;3.50;;;2.17;;
14520;SDS011;7347;50.844;4.490;2024-02-16T13:28:44;3.87;;;1.80;;
14520;SDS011;7347;50.844;4.490;2024-02-16T13:31:11;6.40;;;2.33;;
14520;SDS011;7347;50.844;4.490;2024-02-16T13:33:39;6.07;;;2.10;;
14520;SDS011;7347;50.844;4.490;2024-02-16T13:36:07;3.60;;;2.30;;
14520;SDS011;7347;50.844;4.490;2024-02-16T13:38:34;2.33;;;1.70;;
14520;SDS011;7347;50.844;4.490;2024-02-16T13:41:01;3.20;;;1.80;;
14520;SDS011;7347;50.844;4.490;2024-02-16T13:43:30;3.10;;;1.80;;
14520;SDS011;7347;50.844;4.490;2024-02-16T13:45:57;4.30;;;2.20;;
14520;SDS011;7347;50.844;4.490;2024-02-16T13:48:25;5.43;;;2.90;;
14520;SDS011;7347;50.844;4.490;2024-02-16T13:50:53;3.63;;;2.57;;
14520;SDS011;7347;50.844;4.490;2024-02-16T13:53:21;3.67;;;2.67;;
14520;SDS011;7347;50.844;4.490;2024-02-16T13:55:48;3.63;;;2.47;;
14520;SDS011;7347;50.844;4.490;2024-02-16T13:58:15;7.27;;;3.27;;
14520;SDS011;7347;50.844;4.490;2024-02-16T14:00:42;5.60;;;3.07;;
14520;SDS011;7347;50.844;4.490;2024-02-16T14:03:09;5.27;;;3.03;;
14520;SDS011;7347;50.844;4.490;2024-02-16T14:05:38;4.57;;;3.37;;
14520;SDS011;7347;50.844;4.490;2024-02-16T14:08:07;6.33;;;3.60;;
14520;SDS011;7347;50.844;4.490;2024-02-16T14:10:36;6.07;;;3.90;;
14520;SDS011;7347;50.844;4.490;2024-02-16T14:13:03;7.90;;;3.87;;
14520;SDS011;7347;50.844;4.490;2024-02-16T14:15:30;5.47;;;3.63;;
14520;SDS011;7347;50.844;4.490;2024-02-16T14:17:57;5.87;;;3.40;;
14520;SDS011;7347;50.844;4.490;2024-02-16T14:20:24;4.73;;;3.23;;
14520;SDS011;7347;50.844;4.490;2024-02-16T14:22:51;4.33;;;2.67;;
14520;SDS011;7347;50.844;4.490;2024-02-16T14:25:19;4.67;;;2.80;;
14520;SDS011;7347;50.844;4.490;2024-02-16T14:27:46;3.90;;;1.87;;
14520;SDS011;7347;50.844;4.490;2024-02-16T14:30:13;3.20;;;1.90;;
14520;SDS011;7347;50.844;4.490;2024-02-16T14:32:40;3.00;;;1.70;;
14520;SDS011;7347;50.844;4.490;2024-02-16T14:35:07;2.37;;;1.83;;
14520;SDS011;7347;50.844;4.490;2024-02-16T14:37:36;1.50;;;1.30;;
14520;SDS011;7347;50.844;4.490;2024-02-16T14:40:04;3.17;;;1.80;;
14520;SDS011;7347;50.844;4.490;2024-02-16T14:42:36;1.43;;;1.23;;
14520;SDS011;7347;50.844;4.490;2024-02-16T14:45:05;2.20;;;1.30;;
14520;SDS011;7347;50.844;4.490;2024-02-16T14:47:34;2.17;;;1.80;;
14520;SDS011;7347;50.844;4.490;2024-02-16T14:50:01;2.10;;;1.53;;
14520;SDS011;7347;50.844;4.490;2024-02-16T14:52:32;1.20;;;1.10;;
14520;SDS011;7347;50.844;4.490;2024-02-16T14:54:59;2.23;;;1.30;;
14520;SDS011;7347;50.844;4.490;2024-02-16T14:57:27;2.30;;;1.47;;
14520;SDS011;7347;50.844;4.490;2024-02-16T14:59:55;1.77;;;1.20;;
14520;SDS011;7347;50.844;4.490;2024-02-16T15:02:22;2.00;;;1.30;;
14520;SDS011;7347;50.844;4.490;2024-02-16T15:04:50;2.27;;;1.43;;
14520;SDS011;7347;50.844;4.490;2024-02-16T15:07:19;1.50;;;1.27;;
14520;SDS011;7347;50.844;4.490;2024-02-16T15:09:46;1.60;;;1.10;;
14520;SDS011;7347;50.844;4.490;2024-02-16T15:12:12;1.40;;;1.10;;
14520;SDS011;7347;50.844;4.490;2024-02-16T15:14:43;1.27;;;1.00;;
14520;SDS011;7347;50.844;4.490;2024-02-16T15:17:12;2.20;;;1.30;;
14520;SDS011;7347;50.844;4.490;2024-02-16T15:19:39;1.87;;;1.40;;
14520;SDS011;7347;50.844;4.490;2024-02-16T15:22:06;3.50;;;1.47;;
14520;SDS011;7347;50.844;4.490;2024-02-16T15:24:33;1.53;;;1.00;;
14520;SDS011;7347;50.844;4.490;2024-02-16T15:27:00;3.73;;;1.17;;
14520;SDS011;7347;50.844;4.490;2024-02-16T15:29:28;1.47;;;1.13;;
14520;SDS011;7347;50.844;4.490;2024-02-16T15:31:55;1.20;;;1.10;;
14520;SDS011;7347;50.844;4.490;2024-02-16T15:34:25;1.90;;;1.27;;
14520;SDS011;7347;50.844;4.490;2024-02-16T15:36:52;3.97;;;0.93;;
14520;SDS011;7347;50.844;4.490;2024-02-16T15:39:20;1.97;;;1.20;;
14520;SDS011;7347;50.844;4.490;2024-02-16T15:41:48;3.50;;;1.37;;
14520;SDS011;7347;50.844;4.490;2024-02-16T15:44:15;1.20;;;1.00;;
14520;SDS011;7347;50.844;4.490;2024-02-16T15:46:42;3.07;;;1.20;;
14520;SDS011;7347;50.844;4.490;2024-02-16T15:49:09;2.00;;;1.27;;
14520;SDS011;7347;50.844;4.490;2024-02-16T15:51:37;2.50;;;1.30;;
14520;SDS011;7347;50.844;4.490;2024-02-16T15:54:04;1.63;;;1.27;;
14520;SDS011;7347;50.844;4.490;2024-02-16T15:56:31;2.13;;;1.40;;
14520;SDS011;7347;50.844;4.490;2024-02-16T15:58:58;4.40;;;1.50;;
14520;SDS011;7347;50.844;4.490;2024-02-16T16:01:26;2.63;;;1.20;;
14520;SDS011;7347;50.844;4.490;2024-02-16T16:03:53;3.37;;;1.50;;
14520;SDS011;7347;50.844;4.490;2024-02-16T16:06:21;2.07;;;1.40;;
14520;SDS011;7347;50.844;4.490;2024-02-16T16:08:49;2.73;;;1.67;;
14520;SDS011;7347;50.844;4.490;2024-02-16T16:11:16;2.27;;;1.50;;
14520;SDS011;7347;50.844;4.490;2024-02-16T16:13:44;1.77;;;1.50;;
14520;SDS011;7347;50.844;4.490;2024-02-16T16:16:11;1.50;;;1.27;;
14520;SDS011;7347;50.844;4.490;2024-02-16T16:18:37;2.00;;;1.37;;
14520;SDS011;7347;50.844;4.490;2024-02-16T16:21:05;1.57;;;1.37;;
14520;SDS011;7347;50.844;4.490;2024-02-16T16:23:32;1.33;;;1.23;;
14520;SDS011;7347;50.844;4.490;2024-02-16T16:26:02;3.07;;;1.60;;
14520;SDS011;7347;50.844;4.490;2024-02-16T16:28:29;2.57;;;1.50;;
14520;SDS011;7347;50.844;4.490;2024-02-16T16:30:57;1.23;;;1.13;;
14520;SDS011;7347;50.844;4.490;2024-02-16T16:33:23;2.03;;;1.40;;
14520;SDS011;7347;50.844;4.490;2024-02-16T16:35:50;3.70;;;1.30;;
14520;SDS011;7347;50.844;4.490;2024-02-16T16:38:17;2.83;;;2.33;;
14520;SDS011;7347;50.844;4.490;2024-02-16T16:40:44;2.50;;;1.27;;
14520;SDS011;7347;50.844;4.490;2024-02-16T16:43:12;4.13;;;1.40;;
14520;SDS011;7347;50.844;4.490;2024-02-16T16:45:39;1.80;;;1.40;;
14520;SDS011;7347;50.844;4.490;2024-02-16T16:48:07;2.23;;;1.27;;
14520;SDS011;7347;50.844;4.490;2024-02-16T16:50:34;1.80;;;1.40;;
14520;SDS011;7347;50.844;4.490;2024-02-16T16:53:02;2.77;;;1.70;;
14520;SDS011;7347;50.844;4.490;2024-02-16T16:55:29;4.90;;;1.60;;
14520;SDS011;7347;50.844;4.490;2024-02-16T16:57:56;2.00;;;1.50;;
14520;SDS011;7347;50.844;4.490;2024-02-16T17:00:25;1.73;;;1.33;;
14520;SDS011;7347;50.844;4.490;2024-02-16T17:02:53;2.10;;;1.50;;
14520;SDS011;7347;50.844;4.490;2024-02-16T17:05:19;2.40;;;1.43;;
14520;SDS011;7347;50.844;4.490;2024-02-16T17:07:46;1.90;;;1.43;;
14520;SDS011;7347;50.844;4.490;2024-02-16T17:10:13;2.80;;;1.60;;
14520;SDS011;7347;50.844;4.490;2024-02-16T17:12:41;2.17;;;1.67;;
14520;SDS011;7347;50.844;4.490;2024-02-16T17:15:09;4.57;;;1.60;;
14520;SDS011;7347;50.844;4.490;2024-02-16T17:17:39;3.60;;;1.60;;
14520;SDS011;7347;50.844;4.490;2024-02-16T17:20:13;3.87;;;1.93;;
14520;SDS011;7347;50.844;4.490;2024-02-16T17:22:40;2.73;;;1.77;;
14520;SDS011;7347;50.844;4.490;2024-02-16T17:25:07;4.20;;;1.87;;
14520;SDS011;7347;50.844;4.490;2024-02-16T17:27:34;2.47;;;2.00;;
14520;SDS011;7347;50.844;4.490;2024-02-16T17:30:01;5.03;;;1.97;;
14520;SDS011;7347;50.844;4.490;2024-02-16T17:32:28;2.13;;;1.63;;
14520;SDS011;7347;50.844;4.490;2024-02-16T17:34:57;3.60;;;1.90;;
14520;SDS011;7347;50.844;4.490;2024-02-16T17:37:23;3.57;;;2.20;;
14520;SDS011;7347;50.844;4.490;2024-02-16T17:39:50;2.47;;;1.90;;
14520;SDS011;7347;50.844;4.490;2024-02-16T17:42:17;2.90;;;1.93;;
14520;SDS011;7347;50.844;4.490;2024-02-16T17:44:45;3.37;;;2.17;;
14520;SDS011;7347;50.844;4.490;2024-02-16T17:47:12;4.00;;;2.80;;
14520;SDS011;7347;50.844;4.490;2024-02-16T17:49:39;3.27;;;2.07;;
14520;SDS011;7347;50.844;4.490;2024-02-16T17:52:08;5.33;;;2.20;;
14520;SDS011;7347;50.844;4.490;2024-02-16T17:54:35;2.70;;;2.00;;
14520;SDS011;7347;50.844;4.490;2024-02-16T17:57:06;4.20;;;2.20;;
14520;SDS011;7347;50.844;4.490;2024-02-16T17:59:32;6.33;;;2.40;;
14520;SDS011;7347;50.844;4.490;2024-02-16T18:02:00;3.87;;;2.93;;
14520;SDS011;7347;50.844;4.490;2024-02-16T18:04:28;4.13;;;2.67;;
14520;SDS011;7347;50.844;4.490;2024-02-16T18:06:56;5.67;;;3.20;;
14520;SDS011;7347;50.844;4.490;2024-02-16T18:09:25;5.13;;;3.10;;
14520;SDS011;7347;50.844;4.490;2024-02-16T18:11:51;5.47;;;3.50;;
14520;SDS011;7347;50.844;4.490;2024-02-16T18:14:18;5.20;;;3.60;;
14520;SDS011;7347;50.844;4.490;2024-02-16T18:16:45;4.50;;;2.90;;
14520;SDS011;7347;50.844;4.490;2024-02-16T18:19:12;3.67;;;2.90;;
14520;SDS011;7347;50.844;4.490;2024-02-16T18:21:40;8.77;;;3.30;;
14520;SDS011;7347;50.844;4.490;2024-02-16T18:24:07;4.73;;;2.83;;
14520;SDS011;7347;50.844;4.490;2024-02-16T18:26:35;3.93;;;2.53;;
14520;SDS011;7347;50.844;4.490;2024-02-16T18:29:02;4.67;;;3.00;;
14520;SDS011;7347;50.844;4.490;2024-02-16T18:31:29;4.40;;;2.97;;
14520;SDS011;7347;50.844;4.490;2024-02-16T18:34:00;5.53;;;3.40;;
14520;SDS011;7347;50.844;4.490;2024-02-16T18:36:27;7.10;;;4.10;;
14520;SDS011;7347;50.844;4.490;2024-02-16T18:38:54;5.10;;;3.30;;
14520;SDS011;7347;50.844;4.490;2024-02-16T18:41:22;4.03;;;2.60;;
14520;SDS011;7347;50.844;4.490;2024-02-16T18:43:50;7.17;;;4.30;;
14520;SDS011;7347;50.844;4.490;2024-02-16T18:46:17;9.87;;;3.33;;
14520;SDS011;7347;50.844;4.490;2024-02-16T18:48:44;7.97;;;3.20;;
14520;SDS011;7347;50.844;4.490;2024-02-16T18:51:11;4.70;;;3.03;;
14520;SDS011;7347;50.844;4.490;2024-02-16T18:53:38;5.47;;;2.87;;
14520;SDS011;7347;50.844;4.490;2024-02-16T18:56:06;5.80;;;2.90;;
14520;SDS011;7347;50.844;4.490;2024-02-16T18:58:33;8.17;;;3.47;;
14520;SDS011;7347;50.844;4.490;2024-02-16T19:01:01;10.50;;;4.23;;
14520;SDS011;7347;50.844;4.490;2024-02-16T19:03:28;5.20;;;3.53;;
14520;SDS011;7347;50.844;4.490;2024-02-16T19:05:56;6.77;;;3.90;;
14520;SDS011;7347;50.844;4.490;2024-02-16T19:08:23;9.00;;;4.23;;
14520;SDS011;7347;50.844;4.490;2024-02-16T19:10:50;6.27;;;3.80;;
14520;SDS011;7347;50.844;4.490;2024-02-16T19:13:18;7.23;;;3.90;;
14520;SDS011;7347;50.844;4.490;2024-02-16T19:15:45;5.70;;;3.37;;
14520;SDS011;7347;50.844;4.490;2024-02-16T19:18:13;8.93;;;4.33;;
14520;SDS011;7347;50.844;4.490;2024-02-16T19:20:40;7.20;;;4.00;;
14520;SDS011;7347;50.844;4.490;2024-02-16T19:23:08;5.53;;;3.50;;
14520;SDS011;7347;50.844;4.490;2024-02-16T19:25:37;5.07;;;3.00;;
14520;SDS011;7347;50.844;4.490;2024-02-16T19:28:04;4.00;;;2.60;;
14520;SDS011;7347;50.844;4.490;2024-02-16T19:30:31;5.33;;;2.57;;
14520;SDS011;7347;50.844;4.490;2024-02-16T19:32:58;7.00;;;2.10;;
14520;SDS011;7347;50.844;4.490;2024-02-16T19:35:26;6.27;;;2.30;;
14520;SDS011;7347;50.844;4.490;2024-02-16T19:37:53;4.83;;;2.53;;
14520;SDS011;7347;50.844;4.490;2024-02-16T19:40:20;4.53;;;2.10;;
14520;SDS011;7347;50.844;4.490;2024-02-16T19:42:47;9.70;;;2.40;;
14520;SDS011;7347;50.844;4.490;2024-02-16T19:45:14;4.17;;;2.07;;
14520;SDS011;7347;50.844;4.490;2024-02-16T19:47:43;4.20;;;2.03;;
14520;SDS011;7347;50.844;4.490;2024-02-16T19:50:11;3.50;;;1.73;;
14520;SDS011;7347;50.844;4.490;2024-02-16T19:52:40;2.73;;;1.73;;
14520;SDS011;7347;50.844;4.490;2024-02-16T19:55:07;4.93;;;2.53;;
14520;SDS011;7347;50.844;4.490;2024-02-16T19:57:34;7.23;;;2.63;;
14520;SDS011;7347;50.844;4.490;2024-02-16T20:00:01;7.83;;;2.40;;
14520;SDS011;7347;50.844;4.490;2024-02-16T20:02:29;5.43;;;2.63;;
14520;SDS011;7347;50.844;4.490;2024-02-16T20:04:56;8.00;;;2.63;;
14520;SDS011;7347;50.844;4.490;2024-02-16T20:07:23;6.00;;;2.40;;
14520;SDS011;7347;50.844;4.490;2024-02-16T20:09:54;5.47;;;2.53;;
14520;SDS011;7347;50.844;4.490;2024-02-16T20:12:21;5.73;;;3.10;;
14520;SDS011;7347;50.844;4.490;2024-02-16T20:14:49;6.03;;;2.50;;
14520;SDS011;7347;50.844;4.490;2024-02-16T20:17:16;6.37;;;3.40;;
14520;SDS011;7347;50.844;4.490;2024-02-16T20:19:43;4.07;;;2.33;;
14520;SDS011;7347;50.844;4.490;2024-02-16T20:22:10;9.97;;;3.33;;
14520;SDS011;7347;50.844;4.490;2024-02-16T20:24:37;6.87;;;2.13;;
14520;SDS011;7347;50.844;4.490;2024-02-16T20:27:05;4.23;;;1.87;;
14520;SDS011;7347;50.844;4.490;2024-02-16T20:29:32;7.87;;;1.90;;
14520;SDS011;7347;50.844;4.490;2024-02-16T20:31:59;6.47;;;1.53;;
14520;SDS011;7347;50.844;4.490;2024-02-16T20:34:27;6.70;;;1.67;;
14520;SDS011;7347;50.844;4.490;2024-02-16T20:36:54;4.07;;;1.50;;
14520;SDS011;7347;50.844;4.490;2024-02-16T20:39:20;4.97;;;1.40;;
14520;SDS011;7347;50.844;4.490;2024-02-16T20:41:47;6.17;;;1.53;;
14520;SDS011;7347;50.844;4.490;2024-02-16T20:44:15;4.73;;;1.87;;
14520;SDS011;7347;50.844;4.490;2024-02-16T20:46:42;3.07;;;1.33;;
14520;SDS011;7347;50.844;4.490;2024-02-16T20:49:09;1.93;;;1.30;;
14520;SDS011;7347;50.844;4.490;2024-02-16T20:51:36;6.50;;;1.70;;
14520;SDS011;7347;50.844;4.490;2024-02-16T20:54:03;6.23;;;1.63;;
14520;SDS011;7347;50.844;4.490;2024-02-16T20:56:30;2.93;;;1.37;;
14520;SDS011;7347;50.844;4.490;2024-02-16T20:58:56;6.00;;;1.10;;
14520;SDS011;7347;50.844;4.490;2024-02-16T21:01:25;3.97;;;1.20;;
14520;SDS011;7347;50.844;4.490;2024-02-16T21:03:51;5.33;;;1.30;;
14520;SDS011;7347;50.844;4.490;2024-02-16T21:06:19;4.20;;;1.57;;
14520;SDS011;7347;50.844;4.490;2024-02-16T21:08:46;4.60;;;1.20;;
14520;SDS011;7347;50.844;4.490;2024-02-16T21:11:14;3.03;;;1.37;;
14520;SDS011;7347;50.844;4.490;2024-02-16T21:13:41;4.20;;;1.27;;
14520;SDS011;7347;50.844;4.490;2024-02-16T21:16:09;4.17;;;1.17;;
14520;SDS011;7347;50.844;4.490;2024-02-16T21:18:37;5.37;;;1.40;;
14520;SDS011;7347;50.844;4.490;2024-02-16T21:21:05;4.13;;;1.30;;
14520;SDS011;7347;50.844;4.490;2024-02-16T21:23:32;4.40;;;1.30;;
14520;SDS011;7347;50.844;4.490;2024-02-16T21:25:58;3.00;;;1.50;;
14520;SDS011;7347;50.844;4.490;2024-02-16T21:28:25;5.97;;;1.67;;
